sensor_id;sensor_type;location;lat;lon;timestamp;temperature;humidity
47174;DHT22;36730;49.036;9.094;2022-09-03T00:00:40;25.20;51.70
47174;DHT22;36730;49.036;9.094;2022-09-03T00:03:11;25.20;51.80
47174;DHT22;36730;49.036;9.094;2022-09-03T00:08:33;25.20;52.00
47174;DHT22;36730;49.036;9.094;2022-09-03T00:11:09;25.10;52.00
47174;DHT22;36730;49.036;9.094;2022-09-03T00:13:39;25.10;52.10
47174;DHT22;36730;49.036;9.094;2022-09-03T00:16:07;25.20;52.20
47174;DHT22;36730;49.036;9.094;2022-09-03T00:18:34;25.10;52.10
47174;DHT22;36730;49.036;9.094;2022-09-03T00:21:02;25.10;52.20
47174;DHT22;36730;49.036;9.094;2022-09-03T00:23:34;25.20;52.30
47174;DHT22;36730;49.036;9.094;2022-09-03T00:31:06;25.10;52.20
47174;DHT22;36730;49.036;9.094;2022-09-03T00:33:35;25.10;52.30
47174;DHT22;36730;49.036;9.094;2022-09-03T00:38:47;25.10;52.40
47174;DHT22;36730;49.036;9.094;2022-09-03T00:41:35;25.10;52.50
47174;DHT22;36730;49.036;9.094;2022-09-03T00:44:08;25.10;52.60
47174;DHT22;36730;49.036;9.094;2022-09-03T00:46:46;25.10;52.60
47174;DHT22;36730;49.036;9.094;2022-09-03T00:49:23;25.10;52.60
47174;DHT22;36730;49.036;9.094;2022-09-03T01:00:07;25.00;52.80
47174;DHT22;36730;49.036;9.094;2022-09-03T01:07:49;25.00;52.80
47174;DHT22;36730;49.036;9.094;2022-09-03T01:10:25;25.00;53.00
47174;DHT22;36730;49.036;9.094;2022-09-03T01:13:06;25.10;52.90
47174;DHT22;36730;49.036;9.094;2022-09-03T01:18:40;25.00;53.10
47174;DHT22;36730;49.036;9.094;2022-09-03T01:44:23;24.90;53.30
47174;DHT22;36730;49.036;9.094;2022-09-03T01:47:01;24.90;53.30
47174;DHT22;36730;49.036;9.094;2022-09-03T01:49:35;24.90;53.30
47174;DHT22;36730;49.036;9.094;2022-09-03T01:52:45;24.90;53.30
47174;DHT22;36730;49.036;9.094;2022-09-03T01:55:25;24.90;53.30
47174;DHT22;36730;49.036;9.094;2022-09-03T02:00:13;24.90;53.50
47174;DHT22;36730;49.036;9.094;2022-09-03T02:02:43;24.90;53.40
47174;DHT22;36730;49.036;9.094;2022-09-03T02:05:44;24.80;53.50
47174;DHT22;36730;49.036;9.094;2022-09-03T02:08:07;24.80;53.50
47174;DHT22;36730;49.036;9.094;2022-09-03T02:10:44;24.80;53.60
47174;DHT22;36730;49.036;9.094;2022-09-03T02:13:17;24.80;53.50
47174;DHT22;36730;49.036;9.094;2022-09-03T02:15:44;24.90;53.50
47174;DHT22;36730;49.036;9.094;2022-09-03T02:18:14;24.90;53.50
47174;DHT22;36730;49.036;9.094;2022-09-03T02:20:41;24.90;53.60
47174;DHT22;36730;49.036;9.094;2022-09-03T02:23:06;24.90;53.40
47174;DHT22;36730;49.036;9.094;2022-09-03T02:25:34;24.90;53.30
47174;DHT22;36730;49.036;9.094;2022-09-03T02:28:01;24.90;53.50
47174;DHT22;36730;49.036;9.094;2022-09-03T02:30:27;24.90;53.40
47174;DHT22;36730;49.036;9.094;2022-09-03T02:32:53;24.90;53.40
47174;DHT22;36730;49.036;9.094;2022-09-03T02:35:18;24.90;53.50
47174;DHT22;36730;49.036;9.094;2022-09-03T02:37:44;24.90;53.70
47174;DHT22;36730;49.036;9.094;2022-09-03T02:40:09;24.80;53.70
47174;DHT22;36730;49.036;9.094;2022-09-03T02:42:36;24.90;53.70
47174;DHT22;36730;49.036;9.094;2022-09-03T02:47:33;24.80;53.80
47174;DHT22;36730;49.036;9.094;2022-09-03T02:50:00;24.80;53.90
47174;DHT22;36730;49.036;9.094;2022-09-03T02:52:26;24.80;53.80
47174;DHT22;36730;49.036;9.094;2022-09-03T02:54:51;24.80;53.90
47174;DHT22;36730;49.036;9.094;2022-09-03T02:57:17;24.80;53.80
47174;DHT22;36730;49.036;9.094;2022-09-03T02:59:42;24.80;53.80
47174;DHT22;36730;49.036;9.094;2022-09-03T03:02:11;24.80;53.90
47174;DHT22;36730;49.036;9.094;2022-09-03T03:04:37;24.80;53.70
47174;DHT22;36730;49.036;9.094;2022-09-03T03:07:03;24.90;53.80
47174;DHT22;36730;49.036;9.094;2022-09-03T03:09:29;24.90;53.70
47174;DHT22;36730;49.036;9.094;2022-09-03T03:11:54;24.90;53.70
47174;DHT22;36730;49.036;9.094;2022-09-03T03:14:20;24.90;53.70
47174;DHT22;36730;49.036;9.094;2022-09-03T03:16:46;24.90;53.90
47174;DHT22;36730;49.036;9.094;2022-09-03T03:19:12;24.90;53.90
47174;DHT22;36730;49.036;9.094;2022-09-03T03:21:38;24.90;54.20
47174;DHT22;36730;49.036;9.094;2022-09-03T03:24:03;24.90;54.00
47174;DHT22;36730;49.036;9.094;2022-09-03T03:26:29;24.90;54.10
47174;DHT22;36730;49.036;9.094;2022-09-03T03:28:56;24.80;54.00
47174;DHT22;36730;49.036;9.094;2022-09-03T03:31:21;24.90;54.20
47174;DHT22;36730;49.036;9.094;2022-09-03T03:33:51;24.80;54.10
47174;DHT22;36730;49.036;9.094;2022-09-03T03:36:16;24.80;54.00
47174;DHT22;36730;49.036;9.094;2022-09-03T03:38:42;24.90;54.30
47174;DHT22;36730;49.036;9.094;2022-09-03T03:41:15;24.80;54.30
47174;DHT22;36730;49.036;9.094;2022-09-03T03:43:41;24.80;54.30
47174;DHT22;36730;49.036;9.094;2022-09-03T03:46:07;24.80;54.20
47174;DHT22;36730;49.036;9.094;2022-09-03T03:48:33;24.80;54.50
47174;DHT22;36730;49.036;9.094;2022-09-03T03:50:59;24.80;55.00
47174;DHT22;36730;49.036;9.094;2022-09-03T03:53:25;24.90;54.30
47174;DHT22;36730;49.036;9.094;2022-09-03T03:55:56;24.80;54.30
47174;DHT22;36730;49.036;9.094;2022-09-03T03:58:21;24.80;54.30
47174;DHT22;36730;49.036;9.094;2022-09-03T04:00:47;24.80;54.30
47174;DHT22;36730;49.036;9.094;2022-09-03T04:03:14;24.80;54.60
47174;DHT22;36730;49.036;9.094;2022-09-03T04:05:40;24.80;54.60
47174;DHT22;36730;49.036;9.094;2022-09-03T04:08:05;24.80;54.60
47174;DHT22;36730;49.036;9.094;2022-09-03T04:10:31;24.80;54.80
47174;DHT22;36730;49.036;9.094;2022-09-03T04:12:56;24.80;54.60
47174;DHT22;36730;49.036;9.094;2022-09-03T04:15:22;24.80;54.50
47174;DHT22;36730;49.036;9.094;2022-09-03T04:17:47;24.80;54.70
47174;DHT22;36730;49.036;9.094;2022-09-03T04:20:13;24.80;54.70
47174;DHT22;36730;49.036;9.094;2022-09-03T04:22:38;24.80;54.70
47174;DHT22;36730;49.036;9.094;2022-09-03T04:25:04;24.80;54.80
47174;DHT22;36730;49.036;9.094;2022-09-03T04:27:29;24.80;54.60
47174;DHT22;36730;49.036;9.094;2022-09-03T04:29:55;24.90;54.70
47174;DHT22;36730;49.036;9.094;2022-09-03T04:32:20;24.90;54.60
47174;DHT22;36730;49.036;9.094;2022-09-03T04:35:04;24.90;54.80
47174;DHT22;36730;49.036;9.094;2022-09-03T04:37:31;24.90;55.00
47174;DHT22;36730;49.036;9.094;2022-09-03T04:39:56;24.90;55.00
47174;DHT22;36730;49.036;9.094;2022-09-03T04:42:22;24.90;54.90
47174;DHT22;36730;49.036;9.094;2022-09-03T04:44:47;24.90;55.00
47174;DHT22;36730;49.036;9.094;2022-09-03T04:47:13;24.80;54.90
47174;DHT22;36730;49.036;9.094;2022-09-03T04:49:39;24.80;54.90
47174;DHT22;36730;49.036;9.094;2022-09-03T04:52:05;24.80;55.10
47174;DHT22;36730;49.036;9.094;2022-09-03T04:54:30;24.80;55.10
47174;DHT22;36730;49.036;9.094;2022-09-03T04:56:56;24.80;55.90
47174;DHT22;36730;49.036;9.094;2022-09-03T04:59:21;24.80;55.20
47174;DHT22;36730;49.036;9.094;2022-09-03T05:01:47;24.80;55.20
47174;DHT22;36730;49.036;9.094;2022-09-03T05:04:12;24.80;55.50
47174;DHT22;36730;49.036;9.094;2022-09-03T05:06:38;24.80;55.40
47174;DHT22;36730;49.036;9.094;2022-09-03T05:09:04;24.80;55.30
47174;DHT22;36730;49.036;9.094;2022-09-03T05:11:30;24.80;55.40
47174;DHT22;36730;49.036;9.094;2022-09-03T05:13:56;24.80;56.00
47174;DHT22;36730;49.036;9.094;2022-09-03T05:16:22;24.80;55.30
47174;DHT22;36730;49.036;9.094;2022-09-03T05:18:50;24.80;55.30
47174;DHT22;36730;49.036;9.094;2022-09-03T05:21:17;24.80;55.20
47174;DHT22;36730;49.036;9.094;2022-09-03T05:23:43;24.80;55.40
47174;DHT22;36730;49.036;9.094;2022-09-03T05:26:10;24.80;55.40
47174;DHT22;36730;49.036;9.094;2022-09-03T05:28:37;24.80;55.40
47174;DHT22;36730;49.036;9.094;2022-09-03T05:31:04;24.80;55.30
47174;DHT22;36730;49.036;9.094;2022-09-03T05:33:32;24.90;55.30
47174;DHT22;36730;49.036;9.094;2022-09-03T05:36:02;24.90;55.30
47174;DHT22;36730;49.036;9.094;2022-09-03T05:38:27;24.80;55.20
47174;DHT22;36730;49.036;9.094;2022-09-03T05:40:53;24.80;55.30
47174;DHT22;36730;49.036;9.094;2022-09-03T05:43:22;24.90;55.30
47174;DHT22;36730;49.036;9.094;2022-09-03T05:45:47;24.90;55.40
47174;DHT22;36730;49.036;9.094;2022-09-03T05:48:13;24.90;55.40
47174;DHT22;36730;49.036;9.094;2022-09-03T05:50:38;24.90;55.40
47174;DHT22;36730;49.036;9.094;2022-09-03T05:53:04;24.90;55.50
47174;DHT22;36730;49.036;9.094;2022-09-03T05:55:29;24.90;55.70
47174;DHT22;36730;49.036;9.094;2022-09-03T05:57:55;24.90;55.60
47174;DHT22;36730;49.036;9.094;2022-09-03T06:00:20;24.90;55.70
47174;DHT22;36730;49.036;9.094;2022-09-03T06:02:50;24.90;55.60
47174;DHT22;36730;49.036;9.094;2022-09-03T06:05:15;24.90;55.60
47174;DHT22;36730;49.036;9.094;2022-09-03T06:07:43;24.90;55.70
47174;DHT22;36730;49.036;9.094;2022-09-03T06:10:08;24.90;55.70
47174;DHT22;36730;49.036;9.094;2022-09-03T06:12:35;24.90;55.80
47174;DHT22;36730;49.036;9.094;2022-09-03T06:15:01;25.00;55.70
47174;DHT22;36730;49.036;9.094;2022-09-03T06:17:26;24.90;55.60
47174;DHT22;36730;49.036;9.094;2022-09-03T06:19:52;25.00;55.60
47174;DHT22;36730;49.036;9.094;2022-09-03T06:22:17;25.00;55.60
47174;DHT22;36730;49.036;9.094;2022-09-03T06:24:43;25.10;55.50
47174;DHT22;36730;49.036;9.094;2022-09-03T06:27:08;25.10;55.40
47174;DHT22;36730;49.036;9.094;2022-09-03T06:29:34;25.10;55.50
47174;DHT22;36730;49.036;9.094;2022-09-03T06:31:59;25.10;55.40
47174;DHT22;36730;49.036;9.094;2022-09-03T06:34:26;25.10;55.60
47174;DHT22;36730;49.036;9.094;2022-09-03T06:36:52;25.20;55.50
47174;DHT22;36730;49.036;9.094;2022-09-03T06:39:18;25.10;55.40
47174;DHT22;36730;49.036;9.094;2022-09-03T06:41:43;25.20;55.40
47174;DHT22;36730;49.036;9.094;2022-09-03T06:44:10;25.20;55.70
47174;DHT22;36730;49.036;9.094;2022-09-03T06:46:37;25.20;55.40
47174;DHT22;36730;49.036;9.094;2022-09-03T06:49:09;25.20;55.60
47174;DHT22;36730;49.036;9.094;2022-09-03T06:51:35;25.30;55.50
47174;DHT22;36730;49.036;9.094;2022-09-03T06:54:03;25.20;55.80
47174;DHT22;36730;49.036;9.094;2022-09-03T06:56:29;25.20;55.50
47174;DHT22;36730;49.036;9.094;2022-09-03T06:58:57;25.20;55.70
47174;DHT22;36730;49.036;9.094;2022-09-03T07:01:24;25.20;55.90
47174;DHT22;36730;49.036;9.094;2022-09-03T07:03:54;25.20;55.70
47174;DHT22;36730;49.036;9.094;2022-09-03T07:06:20;25.30;56.40
47174;DHT22;36730;49.036;9.094;2022-09-03T07:08:46;25.30;56.40
47174;DHT22;36730;49.036;9.094;2022-09-03T07:11:16;25.30;56.30
47174;DHT22;36730;49.036;9.094;2022-09-03T07:13:47;25.30;56.20
47174;DHT22;36730;49.036;9.094;2022-09-03T07:16:14;25.30;56.40
47174;DHT22;36730;49.036;9.094;2022-09-03T07:18:40;25.30;56.40
47174;DHT22;36730;49.036;9.094;2022-09-03T07:21:27;25.30;56.10
47174;DHT22;36730;49.036;9.094;2022-09-03T07:23:53;25.40;56.30
47174;DHT22;36730;49.036;9.094;2022-09-03T07:26:29;25.40;56.10
47174;DHT22;36730;49.036;9.094;2022-09-03T07:28:55;25.40;56.20
47174;DHT22;36730;49.036;9.094;2022-09-03T07:31:25;25.40;56.10
47174;DHT22;36730;49.036;9.094;2022-09-03T07:33:57;25.50;56.30
47174;DHT22;36730;49.036;9.094;2022-09-03T07:36:24;25.50;56.30
47174;DHT22;36730;49.036;9.094;2022-09-03T07:38:49;25.50;56.10
47174;DHT22;36730;49.036;9.094;2022-09-03T07:41:15;25.50;56.10
47174;DHT22;36730;49.036;9.094;2022-09-03T07:43:42;25.50;56.20
47174;DHT22;36730;49.036;9.094;2022-09-03T07:46:08;25.50;56.20
47174;DHT22;36730;49.036;9.094;2022-09-03T07:48:40;25.60;56.20
47174;DHT22;36730;49.036;9.094;2022-09-03T07:51:06;25.60;56.10
47174;DHT22;36730;49.036;9.094;2022-09-03T07:53:32;25.70;56.20
47174;DHT22;36730;49.036;9.094;2022-09-03T07:56:02;25.60;56.10
47174;DHT22;36730;49.036;9.094;2022-09-03T07:58:29;25.70;56.10
47174;DHT22;36730;49.036;9.094;2022-09-03T08:00:55;25.70;56.10
47174;DHT22;36730;49.036;9.094;2022-09-03T08:03:21;25.70;56.00
47174;DHT22;36730;49.036;9.094;2022-09-03T08:05:47;25.70;56.00
47174;DHT22;36730;49.036;9.094;2022-09-03T08:08:12;25.80;56.20
47174;DHT22;36730;49.036;9.094;2022-09-03T08:10:39;25.80;56.10
47174;DHT22;36730;49.036;9.094;2022-09-03T08:13:04;25.90;56.20
47174;DHT22;36730;49.036;9.094;2022-09-03T08:15:30;25.90;56.10
47174;DHT22;36730;49.036;9.094;2022-09-03T08:17:56;25.90;56.60
47174;DHT22;36730;49.036;9.094;2022-09-03T08:20:21;25.90;56.70
47174;DHT22;36730;49.036;9.094;2022-09-03T08:22:47;26.00;56.50
47174;DHT22;36730;49.036;9.094;2022-09-03T08:25:13;26.00;56.50
47174;DHT22;36730;49.036;9.094;2022-09-03T08:27:38;26.00;57.30
47174;DHT22;36730;49.036;9.094;2022-09-03T08:30:04;26.00;56.90
47174;DHT22;36730;49.036;9.094;2022-09-03T08:32:30;26.00;57.10
47174;DHT22;36730;49.036;9.094;2022-09-03T08:34:55;26.00;56.50
47174;DHT22;36730;49.036;9.094;2022-09-03T08:37:21;26.10;57.00
47174;DHT22;36730;49.036;9.094;2022-09-03T08:39:53;26.10;56.90
47174;DHT22;36730;49.036;9.094;2022-09-03T08:42:32;26.10;56.40
47174;DHT22;36730;49.036;9.094;2022-09-03T08:45:01;26.10;56.60
47174;DHT22;36730;49.036;9.094;2022-09-03T08:47:36;26.10;57.00
47174;DHT22;36730;49.036;9.094;2022-09-03T08:57:31;26.20;56.50
47174;DHT22;36730;49.036;9.094;2022-09-03T09:00:00;26.20;56.90
47174;DHT22;36730;49.036;9.094;2022-09-03T09:10:58;26.40;56.50
47174;DHT22;36730;49.036;9.094;2022-09-03T09:13:32;26.40;56.40
47174;DHT22;36730;49.036;9.094;2022-09-03T09:16:05;26.40;56.40
47174;DHT22;36730;49.036;9.094;2022-09-03T09:21:15;26.40;56.20
47174;DHT22;36730;49.036;9.094;2022-09-03T09:23:48;26.50;56.30
47174;DHT22;36730;49.036;9.094;2022-09-03T09:26:17;26.50;56.80
47174;DHT22;36730;49.036;9.094;2022-09-03T09:28:44;26.50;57.20
47174;DHT22;36730;49.036;9.094;2022-09-03T09:31:11;26.50;56.90
47174;DHT22;36730;49.036;9.094;2022-09-03T09:33:39;26.50;56.50
47174;DHT22;36730;49.036;9.094;2022-09-03T09:36:12;26.60;57.60
47174;DHT22;36730;49.036;9.094;2022-09-03T09:38:40;26.60;57.60
47174;DHT22;36730;49.036;9.094;2022-09-03T09:43:41;26.60;57.40
47174;DHT22;36730;49.036;9.094;2022-09-03T09:46:40;26.60;57.10
47174;DHT22;36730;49.036;9.094;2022-09-03T09:48:58;26.60;56.70
47174;DHT22;36730;49.036;9.094;2022-09-03T09:51:25;26.70;56.70
47174;DHT22;36730;49.036;9.094;2022-09-03T09:54:11;26.70;57.10
47174;DHT22;36730;49.036;9.094;2022-09-03T09:56:37;26.70;56.80
47174;DHT22;36730;49.036;9.094;2022-09-03T09:59:07;26.70;56.80
47174;DHT22;36730;49.036;9.094;2022-09-03T10:01:34;26.70;56.70
47174;DHT22;36730;49.036;9.094;2022-09-03T10:04:07;26.70;56.80
47174;DHT22;36730;49.036;9.094;2022-09-03T10:06:34;26.80;56.80
47174;DHT22;36730;49.036;9.094;2022-09-03T10:09:21;26.80;56.80
47174;DHT22;36730;49.036;9.094;2022-09-03T10:11:48;26.90;57.00
47174;DHT22;36730;49.036;9.094;2022-09-03T10:14:21;26.90;56.90
47174;DHT22;36730;49.036;9.094;2022-09-03T10:16:49;26.90;56.90
47174;DHT22;36730;49.036;9.094;2022-09-03T10:19:19;27.00;56.90
47174;DHT22;36730;49.036;9.094;2022-09-03T10:21:54;27.00;56.90
47174;DHT22;36730;49.036;9.094;2022-09-03T10:24:28;27.00;56.90
47174;DHT22;36730;49.036;9.094;2022-09-03T10:26:56;27.10;56.90
47174;DHT22;36730;49.036;9.094;2022-09-03T10:29:22;27.00;56.80
47174;DHT22;36730;49.036;9.094;2022-09-03T10:32:37;27.10;56.90
47174;DHT22;36730;49.036;9.094;2022-09-03T10:34:51;27.10;56.90
47174;DHT22;36730;49.036;9.094;2022-09-03T10:37:34;27.10;56.90
47174;DHT22;36730;49.036;9.094;2022-09-03T10:50:33;27.30;56.90
47174;DHT22;36730;49.036;9.094;2022-09-03T10:53:06;27.40;57.00
47174;DHT22;36730;49.036;9.094;2022-09-03T11:00:45;27.40;56.90
47174;DHT22;36730;49.036;9.094;2022-09-03T11:06:06;27.50;57.30
47174;DHT22;36730;49.036;9.094;2022-09-03T11:11:13;27.50;57.50
47174;DHT22;36730;49.036;9.094;2022-09-03T11:13:47;27.50;57.60
47174;DHT22;36730;49.036;9.094;2022-09-03T11:16:19;27.50;58.40
47174;DHT22;36730;49.036;9.094;2022-09-03T11:18:49;27.50;58.20
47174;DHT22;36730;49.036;9.094;2022-09-03T11:21:17;27.50;57.80
47174;DHT22;36730;49.036;9.094;2022-09-03T11:23:44;27.50;59.00
47174;DHT22;36730;49.036;9.094;2022-09-03T11:26:12;27.60;58.60
47174;DHT22;36730;49.036;9.094;2022-09-03T11:33:40;27.70;59.50
47174;DHT22;36730;49.036;9.094;2022-09-03T11:36:09;27.70;58.80
47174;DHT22;36730;49.036;9.094;2022-09-03T11:38:34;27.70;57.90
47174;DHT22;36730;49.036;9.094;2022-09-03T11:44:16;27.70;57.90
47174;DHT22;36730;49.036;9.094;2022-09-03T11:46:51;27.80;58.70
47174;DHT22;36730;49.036;9.094;2022-09-03T11:49:24;27.80;57.90
47174;DHT22;36730;49.036;9.094;2022-09-03T11:51:57;27.80;57.80
47174;DHT22;36730;49.036;9.094;2022-09-03T11:54:23;27.80;57.90
47174;DHT22;36730;49.036;9.094;2022-09-03T11:56:50;27.90;57.90
47174;DHT22;36730;49.036;9.094;2022-09-03T11:59:17;27.80;57.90
47174;DHT22;36730;49.036;9.094;2022-09-03T12:04:13;27.90;58.20
47174;DHT22;36730;49.036;9.094;2022-09-03T12:09:14;27.90;58.20
47174;DHT22;36730;49.036;9.094;2022-09-03T12:21:56;27.90;58.90
47174;DHT22;36730;49.036;9.094;2022-09-03T12:24:23;27.90;59.10
47174;DHT22;36730;49.036;9.094;2022-09-03T12:26:50;27.90;58.40
47174;DHT22;36730;49.036;9.094;2022-09-03T12:29:25;27.90;58.40
47174;DHT22;36730;49.036;9.094;2022-09-03T12:31:52;27.90;58.50
47174;DHT22;36730;49.036;9.094;2022-09-03T12:34:20;27.90;58.60
47174;DHT22;36730;49.036;9.094;2022-09-03T12:36:51;27.90;58.80
47174;DHT22;36730;49.036;9.094;2022-09-03T12:44:23;27.90;59.50
47174;DHT22;36730;49.036;9.094;2022-09-03T12:46:58;27.90;59.10
47174;DHT22;36730;49.036;9.094;2022-09-03T12:49:24;27.90;58.90
47174;DHT22;36730;49.036;9.094;2022-09-03T12:51:50;27.90;59.10
47174;DHT22;36730;49.036;9.094;2022-09-03T12:54:16;27.90;59.20
47174;DHT22;36730;49.036;9.094;2022-09-03T12:56:46;27.90;59.30
47174;DHT22;36730;49.036;9.094;2022-09-03T12:59:15;27.90;59.40
47174;DHT22;36730;49.036;9.094;2022-09-03T13:01:53;27.90;59.50
47174;DHT22;36730;49.036;9.094;2022-09-03T13:04:21;27.90;59.40
47174;DHT22;36730;49.036;9.094;2022-09-03T13:06:55;27.90;59.60
47174;DHT22;36730;49.036;9.094;2022-09-03T13:09:25;27.90;59.50
47174;DHT22;36730;49.036;9.094;2022-09-03T13:11:54;27.90;59.70
47174;DHT22;36730;49.036;9.094;2022-09-03T13:14:20;27.90;59.70
47174;DHT22;36730;49.036;9.094;2022-09-03T13:24:44;27.80;60.00
47174;DHT22;36730;49.036;9.094;2022-09-03T13:27:17;27.80;60.40
47174;DHT22;36730;49.036;9.094;2022-09-03T13:35:04;27.90;61.50
47174;DHT22;36730;49.036;9.094;2022-09-03T13:37:42;27.90;61.10
47174;DHT22;36730;49.036;9.094;2022-09-03T13:42:43;27.90;61.30
47174;DHT22;36730;49.036;9.094;2022-09-03T13:45:15;27.90;61.30
47174;DHT22;36730;49.036;9.094;2022-09-03T13:47:42;27.90;61.40
47174;DHT22;36730;49.036;9.094;2022-09-03T13:50:30;27.90;61.80
47174;DHT22;36730;49.036;9.094;2022-09-03T13:53:01;27.90;61.80
47174;DHT22;36730;49.036;9.094;2022-09-03T14:03:31;27.90;62.00
47174;DHT22;36730;49.036;9.094;2022-09-03T14:11:34;27.90;62.20
47174;DHT22;36730;49.036;9.094;2022-09-03T14:22:00;27.90;62.60
47174;DHT22;36730;49.036;9.094;2022-09-03T14:24:43;27.90;62.80
47174;DHT22;36730;49.036;9.094;2022-09-03T14:27:10;27.90;62.90
47174;DHT22;36730;49.036;9.094;2022-09-03T14:29:36;27.90;63.10
47174;DHT22;36730;49.036;9.094;2022-09-03T14:40:21;27.90;63.60
47174;DHT22;36730;49.036;9.094;2022-09-03T14:48:09;27.90;63.80
47174;DHT22;36730;49.036;9.094;2022-09-03T14:50:43;27.90;63.90
47174;DHT22;36730;49.036;9.094;2022-09-03T14:53:49;27.80;63.90
47174;DHT22;36730;49.036;9.094;2022-09-03T15:01:03;27.80;64.20
47174;DHT22;36730;49.036;9.094;2022-09-03T15:03:46;27.80;64.90
47174;DHT22;36730;49.036;9.094;2022-09-03T15:11:31;27.80;64.70
47174;DHT22;36730;49.036;9.094;2022-09-03T15:25:03;27.70;65.50
47174;DHT22;36730;49.036;9.094;2022-09-03T15:30:12;27.70;65.70
47174;DHT22;36730;49.036;9.094;2022-09-03T15:35:08;27.70;65.90
47174;DHT22;36730;49.036;9.094;2022-09-03T15:45:37;27.80;66.70
47174;DHT22;36730;49.036;9.094;2022-09-03T15:48:06;27.70;66.90
47174;DHT22;36730;49.036;9.094;2022-09-03T15:50:34;27.80;67.20
47174;DHT22;36730;49.036;9.094;2022-09-03T15:55:34;27.80;67.10
47174;DHT22;36730;49.036;9.094;2022-09-03T15:58:13;27.80;67.20
47174;DHT22;36730;49.036;9.094;2022-09-03T16:05:40;27.80;67.40
47174;DHT22;36730;49.036;9.094;2022-09-03T16:11:00;27.80;67.60
47174;DHT22;36730;49.036;9.094;2022-09-03T16:13:54;27.80;67.60
47174;DHT22;36730;49.036;9.094;2022-09-03T16:16:23;27.80;67.70
47174;DHT22;36730;49.036;9.094;2022-09-03T16:26:33;27.80;68.10
47174;DHT22;36730;49.036;9.094;2022-09-03T16:39:13;27.80;68.80
47174;DHT22;36730;49.036;9.094;2022-09-03T16:57:08;27.70;69.50
47174;DHT22;36730;49.036;9.094;2022-09-03T17:10:09;27.70;70.20
47174;DHT22;36730;49.036;9.094;2022-09-03T17:12:52;27.70;70.20
47174;DHT22;36730;49.036;9.094;2022-09-03T17:31:14;27.70;71.50
47174;DHT22;36730;49.036;9.094;2022-09-03T17:34:01;27.60;71.50
47174;DHT22;36730;49.036;9.094;2022-09-03T17:36:30;27.70;71.70
47174;DHT22;36730;49.036;9.094;2022-09-03T17:49:05;27.60;72.50
47174;DHT22;36730;49.036;9.094;2022-09-03T17:54:14;27.60;73.20
47174;DHT22;36730;49.036;9.094;2022-09-03T17:59:14;27.60;73.30
47174;DHT22;36730;49.036;9.094;2022-09-03T18:04:48;27.60;73.40
47174;DHT22;36730;49.036;9.094;2022-09-03T18:07:20;27.60;73.70
47174;DHT22;36730;49.036;9.094;2022-09-03T18:09:51;27.60;73.60
47174;DHT22;36730;49.036;9.094;2022-09-03T18:17:33;27.60;73.90
47174;DHT22;36730;49.036;9.094;2022-09-03T18:20:00;27.60;74.00
47174;DHT22;36730;49.036;9.094;2022-09-03T18:22:50;27.60;74.80
47174;DHT22;36730;49.036;9.094;2022-09-03T18:25:36;27.60;75.30
47174;DHT22;36730;49.036;9.094;2022-09-03T18:28:28;27.60;74.90
47174;DHT22;36730;49.036;9.094;2022-09-03T18:31:14;27.60;74.70
47174;DHT22;36730;49.036;9.094;2022-09-03T18:34:01;27.50;75.00
47174;DHT22;36730;49.036;9.094;2022-09-03T18:36:45;27.60;75.70
47174;DHT22;36730;49.036;9.094;2022-09-03T18:39:29;27.50;75.40
47174;DHT22;36730;49.036;9.094;2022-09-03T18:45:03;27.50;75.60
47174;DHT22;36730;49.036;9.094;2022-09-03T18:47:59;27.50;75.50
47174;DHT22;36730;49.036;9.094;2022-09-03T18:50:49;27.50;75.70
47174;DHT22;36730;49.036;9.094;2022-09-03T18:56:31;27.50;75.50
47174;DHT22;36730;49.036;9.094;2022-09-03T19:02:06;27.50;75.50
47174;DHT22;36730;49.036;9.094;2022-09-03T19:10:27;27.50;76.00
47174;DHT22;36730;49.036;9.094;2022-09-03T19:13:30;27.40;76.00
47174;DHT22;36730;49.036;9.094;2022-09-03T19:16:20;27.40;75.80
47174;DHT22;36730;49.036;9.094;2022-09-03T19:19:25;27.40;76.80
47174;DHT22;36730;49.036;9.094;2022-09-03T19:22:16;27.40;76.40
47174;DHT22;36730;49.036;9.094;2022-09-03T19:25:07;27.40;76.00
47174;DHT22;36730;49.036;9.094;2022-09-03T19:30:45;27.30;76.20
47174;DHT22;36730;49.036;9.094;2022-09-03T19:33:57;27.30;76.30
47174;DHT22;36730;49.036;9.094;2022-09-03T19:50:36;27.30;76.60
47174;DHT22;36730;49.036;9.094;2022-09-03T19:53:23;27.30;76.40
47174;DHT22;36730;49.036;9.094;2022-09-03T19:56:09;27.30;76.40
47174;DHT22;36730;49.036;9.094;2022-09-03T19:58:56;27.30;76.50
47174;DHT22;36730;49.036;9.094;2022-09-03T20:01:41;27.30;77.30
47174;DHT22;36730;49.036;9.094;2022-09-03T20:04:30;27.20;76.50
47174;DHT22;36730;49.036;9.094;2022-09-03T20:07:14;27.20;76.50
47174;DHT22;36730;49.036;9.094;2022-09-03T20:09:59;27.30;76.50
47174;DHT22;36730;49.036;9.094;2022-09-03T20:12:45;27.20;76.40
47174;DHT22;36730;49.036;9.094;2022-09-03T20:15:12;27.20;76.60
47174;DHT22;36730;49.036;9.094;2022-09-03T20:20:18;27.20;77.20
47174;DHT22;36730;49.036;9.094;2022-09-03T20:23:07;27.20;77.00
47174;DHT22;36730;49.036;9.094;2022-09-03T20:30:51;27.10;76.90
47174;DHT22;36730;49.036;9.094;2022-09-03T20:48:42;27.10;77.00
47174;DHT22;36730;49.036;9.094;2022-09-03T20:51:15;27.10;76.60
47174;DHT22;36730;49.036;9.094;2022-09-03T21:04:06;27.10;76.90
47174;DHT22;36730;49.036;9.094;2022-09-03T21:06:40;27.00;76.40
47174;DHT22;36730;49.036;9.094;2022-09-03T21:09:10;27.00;76.60
47174;DHT22;36730;49.036;9.094;2022-09-03T21:11:40;27.00;76.90
47174;DHT22;36730;49.036;9.094;2022-09-03T21:21:57;27.00;77.10
47174;DHT22;36730;49.036;9.094;2022-09-03T21:26:52;27.00;77.00
47174;DHT22;36730;49.036;9.094;2022-09-03T21:29:24;27.00;77.30
47174;DHT22;36730;49.036;9.094;2022-09-03T21:31:53;27.00;77.00
47174;DHT22;36730;49.036;9.094;2022-09-03T21:34:26;27.00;76.90
47174;DHT22;36730;49.036;9.094;2022-09-03T21:36:53;27.00;76.80
47174;DHT22;36730;49.036;9.094;2022-09-03T21:39:25;27.00;77.00
47174;DHT22;36730;49.036;9.094;2022-09-03T21:41:56;27.00;76.90
47174;DHT22;36730;49.036;9.094;2022-09-03T21:46:58;27.00;77.40
47174;DHT22;36730;49.036;9.094;2022-09-03T21:49:30;26.90;77.30
47174;DHT22;36730;49.036;9.094;2022-09-03T21:52:01;26.90;77.30
47174;DHT22;36730;49.036;9.094;2022-09-03T21:54:31;26.90;77.60
47174;DHT22;36730;49.036;9.094;2022-09-03T22:02:25;26.90;77.40
47174;DHT22;36730;49.036;9.094;2022-09-03T22:04:51;26.90;77.60
47174;DHT22;36730;49.036;9.094;2022-09-03T22:15:25;26.90;77.40
47174;DHT22;36730;49.036;9.094;2022-09-03T22:18:12;26.90;77.60
47174;DHT22;36730;49.036;9.094;2022-09-03T22:20:40;26.90;77.30
47174;DHT22;36730;49.036;9.094;2022-09-03T22:23:13;26.90;77.40
47174;DHT22;36730;49.036;9.094;2022-09-03T22:25:47;26.80;77.30
47174;DHT22;36730;49.036;9.094;2022-09-03T22:28:17;26.90;77.80